sensor_id;sensor_type;location;lat;lon;timestamp;pressure;altitude;pressure_sealevel;temperature;humidity
5679;BME280;2862;52.560;13.566;2024-03-08T00:09:09;101567.34;;;1.74;89.71
5679;BME280;2862;52.560;13.566;2024-03-08T00:19:12;101562.81;;;1.77;89.63
5679;BME280;2862;52.560;13.566;2024-03-08T00:29:16;101555.28;;;1.67;90.32
5679;BME280;2862;52.560;13.566;2024-03-08T00:39:20;101563.47;;;1.57;91.29
5679;BME280;2862;52.560;13.566;2024-03-08T00:49:25;101549.28;;;1.62;91.39
5679;BME280;2862;52.560;13.566;2024-03-08T00:59:28;101550.59;;;1.48;92.53
5679;BME280;2862;52.560;13.566;2024-03-08T01:09:32;101538.25;;;1.50;92.78
5679;BME280;2862;52.560;13.566;2024-03-08T01:19:35;101522.97;;;1.33;94.68
5679;BME280;2862;52.560;13.566;2024-03-08T01:29:39;101517.41;;;1.15;96.83
5679;BME280;2862;52.560;13.566;2024-03-08T01:39:42;101503.03;;;0.97;98.92
5679;BME280;2862;52.560;13.566;2024-03-08T01:49:47;101491.56;;;0.99;99.01
5679;BME280;2862;52.560;13.566;2024-03-08T01:59:50;101491.09;;;0.87;100.00
5679;BME280;2862;52.560;13.566;2024-03-08T02:09:57;101481.81;;;0.75;100.00
5679;BME280;2862;52.560;13.566;2024-03-08T02:20:00;101471.31;;;0.73;100.00
5679;BME280;2862;52.560;13.566;2024-03-08T02:30:07;101460.91;;;0.69;100.00
5679;BME280;2862;52.560;13.566;2024-03-08T02:40:11;101464.44;;;0.69;100.00
5679;BME280;2862;52.560;13.566;2024-03-08T02:50:16;101451.59;;;0.59;100.00
5679;BME280;2862;52.560;13.566;2024-03-08T03:00:20;101450.75;;;0.57;100.00
5679;BME280;2862;52.560;13.566;2024-03-08T03:10:24;101446.53;;;0.51;100.00
5679;BME280;2862;52.560;13.566;2024-03-08T03:20:27;101447.69;;;0.42;100.00
5679;BME280;2862;52.560;13.566;2024-03-08T03:30:35;101449.00;;;0.28;100.00
5679;BME280;2862;52.560;13.566;2024-03-08T03:40:39;101436.13;;;0.18;100.00
5679;BME280;2862;52.560;13.566;2024-03-08T03:50:44;101441.38;;;0.18;100.00
5679;BME280;2862;52.560;13.566;2024-03-08T04:00:47;101433.97;;;0.02;100.00
5679;BME280;2862;52.560;13.566;2024-03-08T04:10:51;101431.59;;;-0.08;100.00
5679;BME280;2862;52.560;13.566;2024-03-08T04:20:54;101429.06;;;-0.11;100.00
5679;BME280;2862;52.560;13.566;2024-03-08T04:30:58;101428.22;;;-0.13;100.00
5679;BME280;2862;52.560;13.566;2024-03-08T04:41:02;101438.28;;;-0.27;100.00
5679;BME280;2862;52.560;13.566;2024-03-08T04:51:06;101430.09;;;-0.16;100.00
5679;BME280;2862;52.560;13.566;2024-03-08T05:01:09;101430.56;;;-0.02;100.00
5679;BME280;2862;52.560;13.566;2024-03-08T05:11:15;101425.13;;;-0.27;100.00
5679;BME280;2862;52.560;13.566;2024-03-08T05:21:18;101428.53;;;-0.23;100.00
5679;BME280;2862;52.560;13.566;2024-03-08T05:31:23;101419.25;;;-0.37;100.00
5679;BME280;2862;52.560;13.566;2024-03-08T05:41:26;101402.69;;;-0.39;100.00
5679;BME280;2862;52.560;13.566;2024-03-08T05:51:31;101404.34;;;-0.36;100.00
5679;BME280;2862;52.560;13.566;2024-03-08T06:01:36;101403.06;;;0.10;100.00
5679;BME280;2862;52.560;13.566;2024-03-08T06:11:41;101397.66;;;2.90;90.95
5679;BME280;2862;52.560;13.566;2024-03-08T06:21:44;101402.66;;;5.64;75.44
5679;BME280;2862;52.560;13.566;2024-03-08T06:31:49;101403.75;;;6.75;66.92
5679;BME280;2862;52.560;13.566;2024-03-08T06:41:53;101399.66;;;8.46;59.70
5679;BME280;2862;52.560;13.566;2024-03-08T06:51:58;101399.44;;;7.64;61.62
5679;BME280;2862;52.560;13.566;2024-03-08T07:02:01;101418.25;;;6.04;69.93
5679;BME280;2862;52.560;13.566;2024-03-08T07:12:06;101415.84;;;5.65;71.88
5679;BME280;2862;52.560;13.566;2024-03-08T07:22:09;101406.91;;;4.97;76.46
5679;BME280;2862;52.560;13.566;2024-03-08T07:32:14;101406.31;;;5.26;75.81
5679;BME280;2862;52.560;13.566;2024-03-08T07:42:22;101398.13;;;5.66;73.66
5679;BME280;2862;52.560;13.566;2024-03-08T07:52:26;101393.59;;;5.33;76.14
5679;BME280;2862;52.560;13.566;2024-03-08T08:02:29;101383.88;;;5.33;74.62
5679;BME280;2862;52.560;13.566;2024-03-08T08:12:35;101384.34;;;5.42;80.57
5679;BME280;2862;52.560;13.566;2024-03-08T08:22:38;101375.41;;;4.91;78.39
5679;BME280;2862;52.560;13.566;2024-03-08T08:32:43;101362.03;;;5.96;74.03
5679;BME280;2862;52.560;13.566;2024-03-08T08:42:46;101360.97;;;5.66;73.41
5679;BME280;2862;52.560;13.566;2024-03-08T08:52:52;101345.81;;;6.02;70.23
5679;BME280;2862;52.560;13.566;2024-03-08T09:02:55;101336.41;;;6.44;69.08
5679;BME280;2862;52.560;13.566;2024-03-08T09:13:00;101323.22;;;6.43;67.02
5679;BME280;2862;52.560;13.566;2024-03-08T09:23:06;101309.72;;;6.61;64.80
5679;BME280;2862;52.560;13.566;2024-03-08T09:33:11;101299.13;;;7.50;60.82
5679;BME280;2862;52.560;13.566;2024-03-08T09:43:15;101296.53;;;6.60;61.19
5679;BME280;2862;52.560;13.566;2024-03-08T09:53:19;101285.47;;;6.98;59.74
5679;BME280;2862;52.560;13.566;2024-03-08T10:03:24;101273.28;;;6.63;61.32
5679;BME280;2862;52.560;13.566;2024-03-08T10:13:29;101267.00;;;6.80;59.78
5679;BME280;2862;52.560;13.566;2024-03-08T10:23:33;101277.63;;;6.34;61.79
5679;BME280;2862;52.560;13.566;2024-03-08T10:33:37;101249.72;;;6.57;59.91
5679;BME280;2862;52.560;13.566;2024-03-08T10:43:52;101250.72;;;6.25;61.47
5679;BME280;2862;52.560;13.566;2024-03-08T10:54:02;101233.44;;;7.08;54.86
5679;BME280;2862;52.560;13.566;2024-03-08T11:04:08;101205.16;;;7.21;53.75
5679;BME280;2862;52.560;13.566;2024-03-08T11:14:44;101186.81;;;7.31;51.31
5679;BME280;2862;52.560;13.566;2024-03-08T11:25:34;101193.84;;;7.32;54.58
5679;BME280;2862;52.560;13.566;2024-03-08T11:36:25;101164.28;;;7.65;54.92
5679;BME280;2862;52.560;13.566;2024-03-08T11:46:32;101146.16;;;7.14;55.64
5679;BME280;2862;52.560;13.566;2024-03-08T11:56:37;101143.63;;;7.13;53.00
5679;BME280;2862;52.560;13.566;2024-03-08T12:06:41;101142.28;;;7.20;52.08
5679;BME280;2862;52.560;13.566;2024-03-08T12:16:45;101127.91;;;7.37;51.78
5679;BME280;2862;52.560;13.566;2024-03-08T12:26:50;101119.44;;;7.44;51.97
5679;BME280;2862;52.560;13.566;2024-03-08T12:36:54;101111.59;;;7.70;52.13
5679;BME280;2862;52.560;13.566;2024-03-08T12:46:57;101105.72;;;7.65;54.23
5679;BME280;2862;52.560;13.566;2024-03-08T12:57:02;101088.34;;;7.59;54.06
5679;BME280;2862;52.560;13.566;2024-03-08T13:07:06;101062.66;;;7.85;51.87
5679;BME280;2862;52.560;13.566;2024-03-08T13:17:10;101050.59;;;7.80;52.08
5679;BME280;2862;52.560;13.566;2024-03-08T13:27:14;101036.09;;;7.98;52.69
5679;BME280;2862;52.560;13.566;2024-03-08T13:37:23;101035.00;;;7.88;55.12
5679;BME280;2862;52.560;13.566;2024-03-08T13:47:26;101027.72;;;7.77;55.30
5679;BME280;2862;52.560;13.566;2024-03-08T13:57:30;101004.31;;;7.82;55.57
5679;BME280;2862;52.560;13.566;2024-03-08T14:07:34;101005.22;;;8.21;52.51
5679;BME280;2862;52.560;13.566;2024-03-08T14:17:39;100974.13;;;8.21;52.59
5679;BME280;2862;52.560;13.566;2024-03-08T14:27:42;100961.94;;;8.30;52.82
5679;BME280;2862;52.560;13.566;2024-03-08T14:37:46;100954.50;;;8.35;49.78
5679;BME280;2862;52.560;13.566;2024-03-08T14:47:50;100939.69;;;8.31;51.17
5679;BME280;2862;52.560;13.566;2024-03-08T14:57:54;100922.97;;;8.42;47.50
5679;BME280;2862;52.560;13.566;2024-03-08T15:07:57;100922.75;;;8.32;46.41
5679;BME280;2862;52.560;13.566;2024-03-08T15:18:03;100918.59;;;8.41;46.03
5679;BME280;2862;52.560;13.566;2024-03-08T15:28:08;100914.00;;;8.30;46.76
5679;BME280;2862;52.560;13.566;2024-03-08T15:38:17;100886.03;;;8.37;47.98
5679;BME280;2862;52.560;13.566;2024-03-08T15:48:23;100888.03;;;8.21;47.71
5679;BME280;2862;52.560;13.566;2024-03-08T15:58:28;100877.91;;;8.13;47.98
5679;BME280;2862;52.560;13.566;2024-03-08T16:08:32;100874.00;;;7.93;50.10
5679;BME280;2862;52.560;13.566;2024-03-08T16:18:39;100855.22;;;7.95;51.24
5679;BME280;2862;52.560;13.566;2024-03-08T16:28:42;100848.66;;;7.75;50.53
5679;BME280;2862;52.560;13.566;2024-03-08T16:38:46;100844.56;;;7.57;50.71
5679;BME280;2862;52.560;13.566;2024-03-08T16:48:50;100841.25;;;7.28;51.24
5679;BME280;2862;52.560;13.566;2024-03-08T16:58:55;100840.38;;;7.14;50.91
5679;BME280;2862;52.560;13.566;2024-03-08T17:08:57;100830.84;;;6.85;51.97
5679;BME280;2862;52.560;13.566;2024-03-08T17:19:02;100851.06;;;6.60;52.29
5679;BME280;2862;52.560;13.566;2024-03-08T17:29:08;100840.16;;;6.51;52.18
5679;BME280;2862;52.560;13.566;2024-03-08T17:39:12;100846.44;;;6.35;51.75
5679;BME280;2862;52.560;13.566;2024-03-08T17:49:20;100844.59;;;6.09;52.56
5679;BME280;2862;52.560;13.566;2024-03-08T17:59:25;100837.41;;;5.97;53.55
5679;BME280;2862;52.560;13.566;2024-03-08T18:09:29;100831.75;;;5.73;55.44
5679;BME280;2862;52.560;13.566;2024-03-08T18:19:34;100831.75;;;5.58;56.08
5679;BME280;2862;52.560;13.566;2024-03-08T18:29:37;100831.06;;;5.41;56.81
5679;BME280;2862;52.560;13.566;2024-03-08T18:39:42;100837.59;;;5.35;57.10
5679;BME280;2862;52.560;13.566;2024-03-08T18:49:46;100828.78;;;5.35;57.53
5679;BME280;2862;52.560;13.566;2024-03-08T18:59:50;100826.19;;;5.19;59.17
5679;BME280;2862;52.560;13.566;2024-03-08T19:09:53;100825.59;;;4.99;61.03
5679;BME280;2862;52.560;13.566;2024-03-08T19:20:00;100810.03;;;4.93;62.19
5679;BME280;2862;52.560;13.566;2024-03-08T19:30:08;100798.19;;;4.85;63.02
5679;BME280;2862;52.560;13.566;2024-03-08T19:40:14;100808.53;;;4.73;64.18
5679;BME280;2862;52.560;13.566;2024-03-08T19:50:21;100811.03;;;4.61;65.59
5679;BME280;2862;52.560;13.566;2024-03-08T20:00:27;100809.75;;;4.52;66.78
5679;BME280;2862;52.560;13.566;2024-03-08T20:10:34;100803.00;;;4.46;67.77
5679;BME280;2862;52.560;13.566;2024-03-08T20:20:39;100793.22;;;4.33;69.30
5679;BME280;2862;52.560;13.566;2024-03-08T20:30:44;100793.13;;;4.18;70.65
5679;BME280;2862;52.560;13.566;2024-03-08T20:40:49;100776.66;;;4.13;71.39
5679;BME280;2862;52.560;13.566;2024-03-08T20:50:53;100762.25;;;4.03;72.33
5679;BME280;2862;52.560;13.566;2024-03-08T21:00:58;100761.63;;;3.98;73.01
5679;BME280;2862;52.560;13.566;2024-03-08T21:11:00;100745.50;;;3.87;74.18
5679;BME280;2862;52.560;13.566;2024-03-08T21:21:04;100735.69;;;3.73;75.48
5679;BME280;2862;52.560;13.566;2024-03-08T21:31:08;100729.09;;;3.64;76.46
5679;BME280;2862;52.560;13.566;2024-03-08T21:41:13;100715.09;;;3.46;78.00
5679;BME280;2862;52.560;13.566;2024-03-08T21:51:16;100706.03;;;3.35;79.33
5679;BME280;2862;52.560;13.566;2024-03-08T22:01:20;100699.44;;;3.26;80.36
5679;BME280;2862;52.560;13.566;2024-03-08T22:11:23;100696.84;;;3.09;81.79
5679;BME280;2862;52.560;13.566;2024-03-08T22:21:28;100687.44;;;3.03;82.58
5679;BME280;2862;52.560;13.566;2024-03-08T22:31:31;100673.59;;;2.82;84.50
5679;BME280;2862;52.560;13.566;2024-03-08T22:41:37;100679.31;;;2.90;84.33
5679;BME280;2862;52.560;13.566;2024-03-08T22:51:40;100660.41;;;2.82;84.96
5679;BME280;2862;52.560;13.566;2024-03-08T23:01:45;100658.78;;;2.62;86.59
5679;BME280;2862;52.560;13.566;2024-03-08T23:11:48;100648.53;;;2.56;87.56
5679;BME280;2862;52.560;13.566;2024-03-08T23:21:53;100648.09;;;2.48;88.01
5679;BME280;2862;52.560;13.566;2024-03-08T23:31:56;100631.22;;;2.33;89.52
5679;BME280;2862;52.560;13.566;2024-03-08T23:42:00;100632.47;;;2.26;90.58
5679;BME280;2862;52.560;13.566;2024-03-08T23:52:03;100622.16;;;2.22;90.92
